Time;durP1;ratioP1;P1;durP2;ratioP2;P2;SDS_P1;SDS_P2;PMS_P1;PMS_P2;Temp;Humidity;BMP_temperature;BMP_pressure;BME280_temperature;BME280_humidity;BME280_pressure;Samples;Min_cycle;Max_cycle;Signal;HPM_P1;HPM_P2
2022/09/14 00:00:22;;;;;;;0.00;0.00;;;;;;;16.67;79.28;100804.91;5063859;28;20051;-69
2022/09/14 00:02:48;;;;;;;0.00;0.00;;;;;;;16.66;79.46;100803.22;5059084;28;20047;-70
2022/09/14 00:05:13;;;;;;;0.10;0.10;;;;;;;16.62;78.66;100799.97;5056001;28;20547;-70
2022/09/14 00:07:38;;;;;;;0.00;0.00;;;;;;;16.69;78.86;100802.03;5057952;28;20390;-70
2022/09/14 00:10:04;;;;;;;0.00;0.00;;;;;;;16.69;78.78;100794.75;5056667;28;20119;-70
2022/09/14 00:12:29;;;;;;;0.08;0.08;;;;;;;16.64;77.76;100791.69;5056794;28;20103;-70
2022/09/14 00:14:55;;;;;;;0.00;0.00;;;;;;;16.47;78.74;100766.34;5055265;28;20016;-70
2022/09/14 00:17:20;;;;;;;0.00;0.00;;;;;;;16.68;78.89;100784.09;5056807;28;20121;-70
2022/09/14 00:19:45;;;;;;;0.20;0.08;;;;;;;16.69;78.88;100786.63;5064081;28;20464;-69
2022/09/14 00:22:11;;;;;;;0.00;0.00;;;;;;;16.72;78.49;100780.03;5060142;28;20028;-70
2022/09/14 00:24:36;;;;;;;0.00;0.00;;;;;;;16.64;78.33;100786.25;5060526;28;20043;-70
2022/09/14 00:27:01;;;;;;;0.00;0.00;;;;;;;16.43;78.29;100740.56;5067368;23;20492;-70
2022/09/14 00:29:28;;;;;;;0.00;0.00;;;;;;;16.47;78.58;100742.81;5037845;28;20033;-70
2022/09/14 00:31:55;;;;;;;0.10;0.10;;;;;;;16.67;78.81;100766.13;5036089;28;20043;-70
2022/09/14 00:34:20;;;;;;;0.00;0.00;;;;;;;16.70;79.03;100777.50;5050011;28;20083;-70
2022/09/14 00:36:48;;;;;;;0.00;0.00;;;;;;;16.71;78.50;100765.63;5051324;28;20506;-70
2022/09/14 00:39:14;;;;;;;0.00;0.00;;;;;;;16.48;78.59;100730.97;5051054;28;20731;-71
2022/09/14 00:41:42;;;;;;;0.00;0.00;;;;;;;16.70;78.02;100763.06;5053299;28;20057;-70
2022/09/14 00:44:10;;;;;;;0.00;0.00;;;;;;;16.66;78.37;100761.72;5051871;28;20111;-70
2022/09/14 00:46:38;;;;;;;0.00;0.00;;;;;;;16.62;78.76;100753.91;5060190;28;20400;-70
2022/09/14 00:49:07;;;;;;;0.00;0.00;;;;;;;16.60;78.37;100752.34;5036715;28;20078;-70
2022/09/14 00:51:34;;;;;;;0.00;0.00;;;;;;;16.44;79.66;100732.28;5055565;28;20178;-70
2022/09/14 00:54:01;;;;;;;0.00;0.00;;;;;;;16.56;79.56;100748.25;5046784;28;20032;-70
2022/09/14 00:56:26;;;;;;;0.08;0.08;;;;;;;16.61;79.30;100748.63;5048289;28;20029;-70
2022/09/14 00:58:53;;;;;;;0.08;0.08;;;;;;;16.42;79.36;100709.94;5064132;28;20028;-70
2022/09/14 01:01:18;;;;;;;0.00;0.00;;;;;;;16.58;79.49;100743.53;5057289;28;20036;-70
2022/09/14 01:03:44;;;;;;;0.00;0.00;;;;;;;16.52;79.86;100730.66;5057964;28;20047;-70
2022/09/14 01:06:17;;;;;;;0.00;0.00;;;;;;;16.43;80.38;100724.31;5054863;28;20033;-70
2022/09/14 01:09:15;;;;;;;0.00;0.00;;;;;;;16.28;79.72;100716.78;5032526;28;22088;-70
2022/09/14 01:11:55;;;;;;;0.00;0.00;;;;;;;16.44;79.54;100732.28;5052249;28;20127;-70
2022/09/14 01:14:31;;;;;;;0.00;0.00;;;;;;;16.45;79.32;100727.72;5059102;28;20369;-70
2022/09/14 01:17:13;;;;;;;0.00;0.00;;;;;;;16.45;79.01;100725.88;5039322;28;20025;-70
2022/09/14 01:20:04;;;;;;;0.00;0.00;;;;;;;16.42;79.84;100725.34;5042319;28;20146;-70
2022/09/14 01:22:37;;;;;;;0.00;0.00;;;;;;;16.50;79.22;100719.94;5039111;28;20423;-70
2022/09/14 01:25:11;;;;;;;0.10;0.10;;;;;;;16.45;79.92;100722.28;5033087;28;20380;-70
2022/09/14 01:27:40;;;;;;;0.03;0.03;;;;;;;16.45;79.82;100719.59;5036271;28;20113;-70
2022/09/14 01:30:13;;;;;;;0.00;0.00;;;;;;;16.45;79.20;100719.59;5042123;28;20078;-71
2022/09/14 01:33:00;;;;;;;0.00;0.00;;;;;;;16.47;79.32;100723.84;5046026;28;20078;-70
2022/09/14 01:35:28;;;;;;;0.00;0.00;;;;;;;16.42;79.75;100725.34;5038434;28;20028;-70
2022/09/14 01:37:58;;;;;;;0.00;0.00;;;;;;;16.38;80.28;100719.38;5041978;28;20058;-70
2022/09/14 01:40:28;;;;;;;0.10;0.10;;;;;;;16.33;80.58;100717.16;5045671;28;20036;-70
2022/09/14 01:43:03;;;;;;;0.08;0.08;;;;;;;16.24;81.63;100717.28;5039024;28;20031;-70
2022/09/14 01:45:30;;;;;;;0.00;0.00;;;;;;;16.16;83.09;100715.34;5045617;28;20790;-70
2022/09/14 01:48:05;;;;;;;0.00;0.00;;;;;;;16.17;82.28;100717.91;5041021;28;20032;-70
2022/09/14 01:50:43;;;;;;;0.00;0.00;;;;;;;16.10;83.06;100706.00;5037651;28;20032;-71
2022/09/14 01:53:25;;;;;;;0.00;0.00;;;;;;;15.95;85.61;100686.78;5040593;28;20043;-70
2022/09/14 01:55:57;;;;;;;0.00;0.00;;;;;;;16.10;84.88;100703.28;5044303;28;20039;-70
2022/09/14 01:58:39;;;;;;;0.00;0.00;;;;;;;16.08;85.71;100699.06;5044535;28;20426;-70
2022/09/14 02:01:07;;;;;;;0.10;0.10;;;;;;;15.89;87.23;100699.09;5045112;28;20484;-70
2022/09/14 02:03:37;;;;;;;0.00;0.00;;;;;;;15.94;86.21;100706.75;5041114;28;20067;-70
2022/09/14 02:06:07;;;;;;;0.03;0.03;;;;;;;15.88;87.44;100700.09;5041734;28;20028;-70
2022/09/14 02:08:33;;;;;;;0.00;0.00;;;;;;;15.89;87.71;100692.84;5037793;28;20052;-71
2022/09/14 02:10:58;;;;;;;0.00;0.00;;;;;;;15.73;87.69;100672.72;5041865;28;20130;-71
2022/09/14 02:13:24;;;;;;;0.10;0.10;;;;;;;15.88;89.54;100689.28;5055468;28;20036;-71
2022/09/14 02:15:50;;;;;;;0.00;0.00;;;;;;;15.89;89.85;100690.16;5045601;28;20060;-70
2022/09/14 02:18:15;;;;;;;0.00;0.00;;;;;;;15.84;90.90;100684.31;5041724;28;20025;-70
2022/09/14 02:20:46;;;;;;;0.00;0.00;;;;;;;15.84;90.59;100682.44;5048386;28;20156;-70
2022/09/14 02:23:11;;;;;;;0.00;0.00;;;;;;;15.85;90.05;100681.44;5037404;28;20410;-71
2022/09/14 02:25:39;;;;;;;0.00;0.00;;;;;;;15.85;90.87;100683.31;5037671;28;20043;-71
2022/09/14 02:28:05;;;;;;;0.00;0.00;;;;;;;15.79;90.06;100682.06;5059784;28;20042;-70
2022/09/14 02:30:48;;;;;;;0.00;0.00;;;;;;;15.69;91.50;100676.75;5040994;28;20171;-70
2022/09/14 02:33:34;;;;;;;0.00;0.00;;;;;;;15.54;94.39;100672.91;5035867;28;20031;-70
2022/09/14 02:36:06;;;;;;;0.10;0.10;;;;;;;15.44;95.00;100675.72;5041534;28;20035;-70
2022/09/14 02:38:40;;;;;;;0.00;0.00;;;;;;;14.99;94.26;100643.16;5057847;28;20116;-71
2022/09/14 02:41:14;;;;;;;0.00;0.00;;;;;;;15.06;95.13;100686.69;5044790;28;20024;-70
2022/09/14 02:44:00;;;;;;;0.00;0.00;;;;;;;15.12;95.97;100685.19;5028678;28;20047;-70
2022/09/14 02:46:32;;;;;;;0.00;0.00;;;;;;;15.10;96.16;100682.63;5042972;28;20040;-71
2022/09/14 02:49:05;;;;;;;0.00;0.00;;;;;;;15.11;95.92;100695.16;5056252;28;20036;-70
2022/09/14 02:51:35;;;;;;;0.00;0.00;;;;;;;15.09;96.60;100702.59;5057452;28;20033;-70
2022/09/14 02:54:07;;;;;;;0.00;0.00;;;;;;;15.02;95.80;100684.41;5069392;28;20487;-70
2022/09/14 02:56:34;;;;;;;0.00;0.00;;;;;;;15.06;97.66;100704.75;5043838;28;20039;-70
2022/09/14 02:58:59;;;;;;;0.10;0.10;;;;;;;15.01;99.15;100697.09;5036854;28;20464;-70
2022/09/14 03:01:25;;;;;;;0.05;0.05;;;;;;;14.91;100.00;100688.19;5063780;28;20035;-70
2022/09/14 03:03:50;;;;;;;0.00;0.00;;;;;;;14.90;100.00;100697.28;5059388;28;20073;-71
2022/09/14 03:06:16;;;;;;;0.00;0.00;;;;;;;14.83;100.00;100706.00;5054457;28;20111;-70
2022/09/14 03:08:41;;;;;;;0.08;0.08;;;;;;;14.72;100.00;100690.00;5060993;28;20068;-70
2022/09/14 03:11:06;;;;;;;0.08;0.08;;;;;;;14.76;100.00;100696.81;5051063;28;20063;-70
2022/09/14 03:13:34;;;;;;;0.00;0.00;;;;;;;14.69;100.00;100696.56;5043004;28;20032;-70
2022/09/14 03:16:06;;;;;;;0.00;0.00;;;;;;;14.50;100.00;100656.94;5057179;28;20066;-71
2022/09/14 03:18:32;;;;;;;0.00;0.00;;;;;;;14.63;100.00;100685.44;5046205;28;20032;-71
2022/09/14 03:21:06;;;;;;;0.03;0.03;;;;;;;14.62;100.00;100672.94;5059127;28;20360;-71
2022/09/14 03:23:46;;;;;;;0.00;0.00;;;;;;;14.40;100.00;100645.34;5056907;28;20036;-71
2022/09/14 03:26:13;;;;;;;0.10;0.10;;;;;;;14.46;100.00;100650.16;5037429;28;20035;-71
2022/09/14 03:28:39;;;;;;;0.00;0.00;;;;;;;14.51;100.00;100655.97;5021913;28;20032;-71
2022/09/14 03:31:06;;;;;;;0.00;0.00;;;;;;;14.68;100.00;100678.66;5033236;28;20029;-71
2022/09/14 03:33:31;;;;;;;0.08;0.08;;;;;;;14.61;100.00;100676.66;5046788;28;20140;-71
2022/09/14 03:35:57;;;;;;;0.00;0.00;;;;;;;14.57;100.00;100669.88;5034986;28;20029;-71
2022/09/14 03:38:23;;;;;;;0.10;0.10;;;;;;;14.49;100.00;100667.88;5049954;28;20045;-71
2022/09/14 03:40:48;;;;;;;0.00;0.00;;;;;;;14.51;100.00;100665.91;5049876;28;20039;-71
2022/09/14 03:43:13;;;;;;;0.10;0.10;;;;;;;14.35;100.00;100635.00;5044745;28;20048;-71
2022/09/14 03:45:39;;;;;;;0.10;0.10;;;;;;;14.53;100.00;100658.50;5044545;28;20043;-71
2022/09/14 03:48:04;;;;;;;0.00;0.00;;;;;;;14.53;100.00;100645.84;5027229;28;20492;-71
2022/09/14 03:50:30;;;;;;;0.05;0.05;;;;;;;14.59;100.00;100652.50;5047286;28;20025;-71
2022/09/14 03:52:56;;;;;;;0.10;0.10;;;;;;;14.52;100.00;100646.84;5048784;28;20037;-71
2022/09/14 03:55:21;;;;;;;0.05;0.05;;;;;;;14.44;100.00;100635.94;5049481;28;20040;-71
2022/09/14 03:57:46;;;;;;;0.00;0.00;;;;;;;14.46;100.00;100630.38;5053344;28;20032;-71
2022/09/14 04:00:12;;;;;;;0.00;0.00;;;;;;;14.44;100.00;100622.44;5046974;28;20036;-71
2022/09/14 04:02:38;;;;;;;0.08;0.08;;;;;;;14.52;100.00;100629.78;5040500;28;20566;-71
2022/09/14 04:05:04;;;;;;;0.03;0.03;;;;;;;14.46;100.00;100625.84;5045824;28;20030;-71
2022/09/14 04:07:29;;;;;;;0.10;0.10;;;;;;;14.35;100.00;100609.81;5056356;28;20044;-71
2022/09/14 04:09:55;;;;;;;0.10;0.10;;;;;;;14.24;100.00;100594.66;5053713;28;20028;-71
2022/09/14 04:12:20;;;;;;;0.00;0.00;;;;;;;14.23;100.00;100598.34;5051606;28;20040;-71
2022/09/14 04:14:45;;;;;;;0.10;0.10;;;;;;;14.41;100.00;100620.03;5055805;28;20036;-71
2022/09/14 04:17:10;;;;;;;0.10;0.10;;;;;;;14.27;100.00;100604.34;5057194;28;20410;-71
2022/09/14 04:19:37;;;;;;;0.00;0.00;;;;;;;14.37;100.00;100622.19;5059472;28;20028;-71
2022/09/14 04:22:03;;;;;;;0.10;0.10;;;;;;;14.39;100.00;100614.78;5059192;28;20025;-71
2022/09/14 04:24:29;;;;;;;0.10;0.10;;;;;;;14.29;100.00;100618.53;5039588;28;20024;-71
2022/09/14 04:26:54;;;;;;;0.10;0.10;;;;;;;14.33;100.00;100611.81;5053484;28;20574;-71
2022/09/14 04:29:19;;;;;;;0.00;0.00;;;;;;;14.31;100.00;100609.28;5058921;28;20041;-71
2022/09/14 04:31:45;;;;;;;0.00;0.00;;;;;;;14.33;100.00;100603.72;5054930;28;20036;-71
2022/09/14 04:34:12;;;;;;;0.00;0.00;;;;;;;14.35;100.00;100599.00;5050336;28;20102;-71
2022/09/14 04:36:37;;;;;;;0.00;0.00;;;;;;;14.35;100.00;100601.72;5061824;28;20048;-71
2022/09/14 04:39:03;;;;;;;0.00;0.00;;;;;;;14.33;100.00;100598.31;5057065;28;20025;-71
2022/09/14 04:41:29;;;;;;;0.00;0.00;;;;;;;14.42;100.00;100597.41;5063248;28;20021;-71
2022/09/14 04:43:55;;;;;;;0.10;0.10;;;;;;;14.44;100.00;100606.22;5054573;28;20052;-71
2022/09/14 04:46:23;;;;;;;0.10;0.10;;;;;;;14.46;100.00;100600.66;5061160;28;20508;-71
2022/09/14 04:48:49;;;;;;;0.00;0.00;;;;;;;14.47;100.00;100602.34;5055469;28;20091;-71
2022/09/14 04:51:19;;;;;;;0.05;0.05;;;;;;;14.44;100.00;100590.03;5055121;28;20463;-71
2022/09/14 04:53:51;;;;;;;0.00;0.00;;;;;;;14.36;100.00;100588.06;5059157;28;20036;-72
2022/09/14 04:56:18;;;;;;;0.05;0.05;;;;;;;14.42;100.00;100588.47;5058739;28;20024;-72
2022/09/14 04:58:48;;;;;;;0.05;0.05;;;;;;;14.47;100.00;100591.56;5065137;28;20027;-71
2022/09/14 05:01:16;;;;;;;0.05;0.05;;;;;;;14.42;100.00;100596.59;5057524;28;20013;-71
2022/09/14 05:03:42;;;;;;;0.10;0.10;;;;;;;14.27;100.00;100572.75;5054777;28;20112;-71
2022/09/14 05:06:11;;;;;;;0.10;0.10;;;;;;;14.44;100.00;100594.56;5049104;28;20399;-71
2022/09/14 05:08:37;;;;;;;0.10;0.10;;;;;;;14.39;100.00;100590.47;5028013;28;20029;-71
2022/09/14 05:11:04;;;;;;;0.10;0.10;;;;;;;14.46;100.00;100590.72;5046290;28;20031;-71
2022/09/14 05:13:29;;;;;;;0.10;0.10;;;;;;;14.37;100.00;100587.06;5045679;28;20031;-71
2022/09/14 05:15:54;;;;;;;0.00;0.00;;;;;;;14.42;100.00;100600.13;5049467;28;20032;-72
2022/09/14 05:18:20;;;;;;;0.10;0.10;;;;;;;14.37;100.00;100595.19;5051151;28;20037;-71
2022/09/14 05:20:45;;;;;;;0.10;0.10;;;;;;;14.38;100.00;100587.91;5045154;28;20028;-71
2022/09/14 05:23:11;;;;;;;0.10;0.10;;;;;;;14.40;100.00;100597.59;5044616;28;20067;-71
2022/09/14 05:25:36;;;;;;;0.00;0.00;;;;;;;14.28;100.00;100574.47;5051079;28;20032;-72
2022/09/14 05:28:02;;;;;;;0.00;0.00;;;;;;;14.48;100.00;100594.13;5053287;28;20108;-70
2022/09/14 05:30:27;;;;;;;0.00;0.00;;;;;;;14.50;100.00;100586.72;5053548;28;20111;-70
2022/09/14 05:32:52;;;;;;;0.00;0.00;;;;;;;14.48;100.00;100593.25;5050908;28;20051;-70
2022/09/14 05:35:17;;;;;;;0.10;0.10;;;;;;;14.42;100.00;100575.81;5043753;28;20044;-70
2022/09/14 05:37:43;;;;;;;0.00;0.00;;;;;;;14.48;100.00;100596.81;5049105;28;20040;-70
2022/09/14 05:40:09;;;;;;;0.00;0.00;;;;;;;14.53;100.00;100601.75;5053195;28;20028;-71
2022/09/14 05:42:34;;;;;;;0.00;0.00;;;;;;;14.41;100.00;100579.50;5047593;28;20129;-76
2022/09/14 05:45:00;;;;;;;0.00;0.00;;;;;;;14.42;100.00;100578.50;5054389;28;20020;-73
2022/09/14 05:47:28;;;;;;;0.03;0.03;;;;;;;14.49;100.00;100597.66;5035952;28;20029;-76
2022/09/14 05:49:53;;;;;;;0.00;0.00;;;;;;;14.56;100.00;100609.56;5045422;28;20056;-72
2022/09/14 05:52:19;;;;;;;0.00;0.00;;;;;;;14.51;100.00;100601.06;5045099;28;20120;-73
2022/09/14 05:54:45;;;;;;;0.00;0.00;;;;;;;14.48;100.00;100606.75;5038195;28;20024;-71
2022/09/14 05:57:10;;;;;;;0.00;0.00;;;;;;;14.39;100.00;100606.69;5035723;28;20120;-72
2022/09/14 05:59:35;;;;;;;0.00;0.00;;;;;;;14.42;100.00;100602.81;5056111;28;20127;-71
2022/09/14 06:02:01;;;;;;;0.00;0.00;;;;;;;14.51;100.00;100606.47;5055569;28;20124;-71
2022/09/14 06:04:26;;;;;;;0.00;0.00;;;;;;;14.48;100.00;100602.22;5047321;28;20063;-71
2022/09/14 06:06:51;;;;;;;0.08;0.08;;;;;;;14.48;100.00;100598.66;5048122;28;20021;-72
2022/09/14 06:09:16;;;;;;;0.05;0.05;;;;;;;14.39;100.00;100579.69;5053944;28;20111;-73
2022/09/14 06:11:42;;;;;;;0.00;0.00;;;;;;;14.45;100.00;100597.13;5052426;28;20028;-71
2022/09/14 06:14:07;;;;;;;0.00;0.00;;;;;;;14.46;100.00;100600.66;5050370;28;20036;-71
2022/09/14 06:16:33;;;;;;;0.05;0.05;;;;;;;14.44;100.00;100605.34;5050884;28;20404;-72
2022/09/14 06:18:59;;;;;;;0.00;0.00;;;;;;;14.39;100.00;100595.88;5046127;28;20029;-77
2022/09/14 06:21:29;;;;;;;0.00;0.00;;;;;;;14.48;100.00;100599.53;5029957;28;20391;-72
2022/09/14 06:23:54;;;;;;;0.00;0.00;;;;;;;14.62;100.00;100618.91;5031902;28;20033;-72
2022/09/14 06:26:20;;;;;;;0.05;0.05;;;;;;;14.69;100.00;100612.81;5053203;28;20565;-72
2022/09/14 06:28:45;;;;;;;0.10;0.10;;;;;;;14.74;100.00;100606.06;5056159;28;20036;-72
2022/09/14 06:31:12;;;;;;;0.00;0.00;;;;;;;14.68;100.00;100584.09;5055937;28;20083;-72
2022/09/14 06:33:42;;;;;;;0.08;0.08;;;;;;;14.84;100.00;100599.59;5021282;28;20119;-72
2022/09/14 06:36:11;;;;;;;0.10;0.10;;;;;;;14.75;100.00;100591.56;5053070;28;20054;-72
2022/09/14 06:38:36;;;;;;;0.10;0.10;;;;;;;14.69;100.00;100571.41;5047673;28;20049;-72
2022/09/14 06:41:06;;;;;;;0.10;0.10;;;;;;;14.84;100.00;100596.88;5057827;28;20546;-72
2022/09/14 06:43:34;;;;;;;0.10;0.10;;;;;;;14.76;100.00;100594.13;5056559;28;20028;-72
2022/09/14 06:46:05;;;;;;;0.00;0.00;;;;;;;14.82;100.00;100595.34;5040150;28;20032;-72
2022/09/14 06:48:34;;;;;;;0.03;0.03;;;;;;;14.89;100.00;100604.56;5042006;28;20032;-72
2022/09/14 06:50:59;;;;;;;0.10;0.10;;;;;;;14.94;100.00;100596.84;5050330;28;20059;-72
2022/09/14 06:53:25;;;;;;;0.00;0.00;;;;;;;15.03;100.00;100603.16;5041389;28;20618;-72
2022/09/14 06:55:50;;;;;;;0.00;0.00;;;;;;;15.04;100.00;100609.41;5054377;28;20580;-72
2022/09/14 06:58:16;;;;;;;0.00;0.00;;;;;;;15.07;100.00;100599.16;5054552;28;20024;-72
2022/09/14 07:00:41;;;;;;;0.10;0.10;;;;;;;15.03;100.00;100583.38;5065082;28;20028;-72
2022/09/14 07:03:06;;;;;;;0.00;0.00;;;;;;;15.14;100.00;100597.50;5058783;28;20456;-72
2022/09/14 07:05:32;;;;;;;0.10;0.10;;;;;;;15.05;100.00;100574.13;5051365;28;20036;-72
2022/09/14 07:07:57;;;;;;;0.00;0.00;;;;;;;15.15;100.00;100590.25;5054648;28;20455;-72
2022/09/14 07:10:26;;;;;;;0.00;0.00;;;;;;;15.13;100.00;100589.56;5055115;28;20498;-71
2022/09/14 07:12:53;;;;;;;0.10;0.10;;;;;;;15.17;100.00;100604.47;5038442;28;20395;-72
2022/09/14 07:15:18;;;;;;;0.00;0.00;;;;;;;15.21;100.00;100599.59;5054414;28;20629;-74
2022/09/14 07:17:44;;;;;;;0.00;0.00;;;;;;;15.09;100.00;100585.47;5049570;28;20033;-73
2022/09/14 07:20:10;;;;;;;0.00;0.00;;;;;;;15.26;100.00;100610.81;5051117;28;20037;-74
2022/09/14 07:22:35;;;;;;;0.10;0.10;;;;;;;15.19;100.00;100607.88;5059925;28;20098;-74
2022/09/14 07:25:01;;;;;;;0.00;0.00;;;;;;;15.10;100.00;100589.88;5038040;28;20041;-74
2022/09/14 07:27:26;;;;;;;0.05;0.05;;;;;;;15.25;100.00;100604.53;5054332;28;20364;-74
2022/09/14 07:29:51;;;;;;;0.10;0.10;;;;;;;15.26;100.00;100595.41;5051810;28;20121;-74
2022/09/14 07:32:16;;;;;;;0.10;0.10;;;;;;;15.31;100.00;100592.25;5049649;28;20028;-74
2022/09/14 07:34:42;;;;;;;0.00;0.00;;;;;;;15.17;100.00;100577.44;5056679;28;20043;-75
2022/09/14 07:37:07;;;;;;;0.00;0.00;;;;;;;15.17;100.00;100596.38;5050039;28;20021;-76
2022/09/14 07:39:34;;;;;;;0.10;0.10;;;;;;;15.04;100.00;100576.97;5041379;28;20021;-74
2022/09/14 07:41:59;;;;;;;0.00;0.00;;;;;;;14.94;100.00;100569.81;5048409;28;20043;-73
2022/09/14 07:44:24;;;;;;;0.10;0.10;;;;;;;14.80;100.00;100549.56;5033392;28;20024;-73
2022/09/14 07:46:50;;;;;;;0.00;0.00;;;;;;;14.97;100.00;100587.56;5050707;28;20452;-73
2022/09/14 07:49:16;;;;;;;0.47;0.00;;;;;;;14.96;100.00;100585.84;5048290;28;20020;-70
2022/09/14 07:51:41;;;;;;;0.00;0.00;;;;;;;14.88;100.00;100564.16;5048129;28;20036;-72
2022/09/14 07:54:09;;;;;;;0.10;0.10;;;;;;;14.76;100.00;100553.59;5035509;28;20039;-75
2022/09/14 07:56:34;;;;;;;0.00;0.00;;;;;;;14.79;100.00;100574.91;5027433;28;20028;-76
2022/09/14 07:58:59;;;;;;;0.00;0.00;;;;;;;14.79;100.00;100566.78;5054631;28;20021;-75
2022/09/14 08:01:25;;;;;;;0.00;0.00;;;;;;;14.85;100.00;100571.56;5033746;28;20032;-75
2022/09/14 08:03:51;;;;;;;0.10;0.10;;;;;;;14.77;100.00;100568.78;5051291;28;20032;-75
2022/09/14 08:06:18;;;;;;;0.00;0.00;;;;;;;14.89;100.00;100577.53;5053777;28;20372;-75
2022/09/14 08:08:46;;;;;;;0.10;0.10;;;;;;;14.95;100.00;100576.03;5049721;28;20029;-76
2022/09/14 08:11:18;;;;;;;0.17;0.10;;;;;;;15.03;100.00;100577.97;5035083;28;20075;-75
2022/09/14 08:13:48;;;;;;;0.10;0.10;;;;;;;15.05;100.00;100581.38;5045453;28;20029;-74
2022/09/14 08:16:13;;;;;;;0.00;0.00;;;;;;;15.07;100.00;100574.81;5035933;28;20035;-73
2022/09/14 08:18:39;;;;;;;0.10;0.10;;;;;;;15.11;100.00;100581.59;5036599;28;20024;-73
2022/09/14 08:21:06;;;;;;;0.00;0.00;;;;;;;15.19;100.00;100578.13;5035845;28;20098;-72
2022/09/14 08:23:32;;;;;;;0.00;0.00;;;;;;;15.09;100.00;100563.84;5037498;28;20066;-71
2022/09/14 08:26:07;;;;;;;0.05;0.05;;;;;;;14.96;100.00;100540.72;5048186;28;20694;-71
2022/09/14 08:28:33;;;;;;;0.10;0.10;;;;;;;15.08;100.00;100567.53;5044460;28;20032;-73
2022/09/14 08:31:10;;;;;;;0.05;0.05;;;;;;;15.20;100.00;100570.84;5044598;28;20039;-72
2022/09/14 08:33:39;;;;;;;0.10;0.10;;;;;;;15.20;100.00;100573.56;5042772;28;20024;-77
2022/09/14 08:36:06;;;;;;;0.00;0.00;;;;;;;15.16;100.00;100559.50;5048664;28;20028;-72
2022/09/14 08:38:31;;;;;;;0.10;0.10;;;;;;;15.13;100.00;100555.25;5045378;28;20617;-74
2022/09/14 08:40:58;;;;;;;0.08;0.08;;;;;;;15.09;100.00;100536.81;5036316;28;20312;-74
2022/09/14 08:43:24;;;;;;;0.08;0.08;;;;;;;15.36;100.00;100562.03;5040960;28;20039;-74
2022/09/14 08:45:54;;;;;;;0.00;0.00;;;;;;;15.36;100.00;100564.72;5023109;28;20021;-74
2022/09/14 08:48:25;;;;;;;0.00;0.00;;;;;;;15.40;100.00;100564.25;5043755;28;20142;-74
2022/09/14 08:50:52;;;;;;;0.00;0.00;;;;;;;15.32;100.00;100560.63;5040036;28;20040;-71
2022/09/14 08:53:19;;;;;;;0.08;0.08;;;;;;;15.18;100.00;100533.16;5045454;28;20507;-71
2022/09/14 08:55:48;;;;;;;0.00;0.00;;;;;;;15.48;100.00;100571.59;5052098;28;20079;-72
2022/09/14 08:58:41;;;;;;;0.00;0.00;;;;;;;15.41;100.00;100571.34;5030503;28;20527;-71
2022/09/14 09:01:22;;;;;;;0.00;0.00;;;;;;;15.36;100.00;100548.50;5056990;28;20043;-71
2022/09/14 09:04:30;;;;;;;0.10;0.10;;;;;;;15.53;100.00;100573.81;5033664;28;20028;-71
2022/09/14 09:07:16;;;;;;;0.00;0.00;;;;;;;15.62;100.00;100572.88;5029336;28;20654;-71
2022/09/14 09:09:44;;;;;;;0.10;0.10;;;;;;;15.40;100.00;100550.72;5037156;28;20033;-72
2022/09/14 09:12:15;;;;;;;0.00;0.00;;;;;;;15.54;100.00;100573.63;5054927;28;20047;-70
2022/09/14 09:14:53;;;;;;;0.10;0.10;;;;;;;15.69;100.00;100582.03;5056620;28;20698;-71
2022/09/14 09:17:24;;;;;;;0.00;0.00;;;;;;;15.77;100.00;100583.94;5050914;28;20025;-71
2022/09/14 09:19:58;;;;;;;0.00;0.00;;;;;;;15.83;100.00;100587.88;5036453;28;20020;-72
2022/09/14 09:22:23;;;;;;;;;;;;;;;15.78;100.00;100584.78;5054174;28;20033;-71
2022/09/14 09:24:52;;;;;;;0.10;0.10;;;;;;;15.79;100.00;100579.19;5061664;28;19919;-74
2022/09/14 09:27:18;;;;;;;0.10;0.10;;;;;;;15.83;100.00;100587.88;5034970;28;20031;-74
2022/09/14 09:29:43;;;;;;;0.00;0.00;;;;;;;15.89;100.00;100588.09;5054361;28;20029;-75
2022/09/14 09:32:15;;;;;;;0.00;0.00;;;;;;;15.80;100.00;100570.06;5036159;28;20024;-74
2022/09/14 09:34:40;;;;;;;0.00;0.00;;;;;;;15.88;100.00;100589.13;5035384;28;20060;-74
2022/09/14 09:37:12;;;;;;;0.00;0.00;;;;;;;15.66;100.00;100581.50;5052722;28;20030;-74
2022/09/14 09:39:38;;;;;;;0.00;0.00;;;;;;;15.44;100.00;100559.38;5034861;28;20025;-72
2022/09/14 09:42:12;;;;;;;0.00;0.00;;;;;;;15.53;100.00;100563.00;5049168;28;20033;-72
2022/09/14 09:44:58;;;;;;;0.00;0.00;;;;;;;15.47;100.00;100583.41;5049331;28;20021;-74
2022/09/14 09:47:39;;;;;;;0.00;0.00;;;;;;;15.51;100.00;100578.53;5051489;28;20119;-74
2022/09/14 09:50:17;;;;;;;0.10;0.10;;;;;;;15.41;100.00;100578.63;5047240;28;20462;-74
2022/09/14 09:52:51;;;;;;;0.10;0.10;;;;;;;15.34;100.00;100564.91;5037327;28;20033;-71
2022/09/14 09:55:19;;;;;;;0.00;0.00;;;;;;;15.23;100.00;100543.50;5035999;28;20036;-72
2022/09/14 09:57:44;;;;;;;0.00;0.00;;;;;;;15.41;100.00;100575.94;5042237;28;20493;-71
2022/09/14 10:00:11;;;;;;;0.05;0.05;;;;;;;15.29;100.00;100564.50;5054447;28;20119;-71
2022/09/14 10:02:36;;;;;;;0.05;0.05;;;;;;;15.17;100.00;100555.81;5057514;28;20025;-72
2022/09/14 10:05:07;;;;;;;0.00;0.00;;;;;;;15.05;100.00;100551.63;5051121;28;20306;-71
2022/09/14 10:07:39;;;;;;;0.00;0.00;;;;;;;15.02;100.00;100527.59;5059901;28;20036;-72
2022/09/14 10:10:10;;;;;;;0.00;0.00;;;;;;;15.07;100.00;100528.00;5046517;28;20353;-73
2022/09/14 10:12:37;;;;;;;0.10;0.10;;;;;;;15.22;100.00;100536.38;5064124;28;20028;-71
2022/09/14 10:15:25;;;;;;;0.00;0.00;;;;;;;15.28;100.00;100546.59;5042381;28;20124;-71
2022/09/14 10:17:59;;;;;;;0.10;0.10;;;;;;;15.30;100.00;100540.00;5041201;28;20416;-71
2022/09/14 10:20:25;;;;;;;0.00;0.00;;;;;;;15.33;100.00;100535.28;5052012;28;20032;-71
2022/09/14 10:22:51;;;;;;;0.10;0.10;;;;;;;15.43;100.00;100550.41;5036022;28;20031;-72
2022/09/14 10:25:16;;;;;;;0.00;0.00;;;;;;;15.50;100.00;100549.78;5042753;28;20064;-72
2022/09/14 10:27:54;;;;;;;0.10;0.10;;;;;;;15.42;100.00;100553.28;5051479;28;20060;-74
2022/09/14 10:30:24;;;;;;;0.10;0.10;;;;;;;15.33;100.00;100525.31;5053656;28;20036;-74
2022/09/14 10:32:55;;;;;;;0.10;0.10;;;;;;;15.43;100.00;100546.88;5058538;28;20028;-74
2022/09/14 10:35:22;;;;;;;0.05;0.05;;;;;;;15.45;100.00;100550.25;5057729;28;20029;-76
2022/09/14 10:38:09;;;;;;;0.10;0.10;;;;;;;15.34;100.00;100543.25;5045144;28;20032;-70
2022/09/14 10:40:38;;;;;;;0.10;0.10;;;;;;;15.32;100.00;100529.03;5043600;28;20399;-72
2022/09/14 10:43:14;;;;;;;0.00;0.00;;;;;;;15.51;100.00;100546.91;5043622;28;20608;-73
2022/09/14 10:45:51;;;;;;;0.00;0.00;;;;;;;15.56;100.00;100552.69;5055738;28;20547;-75
2022/09/14 10:48:25;;;;;;;0.10;0.10;;;;;;;15.66;100.00;100543.63;5060783;28;20063;-75
2022/09/14 10:51:01;;;;;;;0.10;0.10;;;;;;;15.65;100.00;100548.16;5042991;28;20021;-75
2022/09/14 10:53:35;;;;;;;0.00;0.00;;;;;;;15.74;100.00;100552.63;5045690;28;20055;-75
2022/09/14 10:56:23;;;;;;;0.05;0.05;;;;;;;15.65;100.00;100555.44;5039465;28;20033;-72
2022/09/14 10:59:06;;;;;;;0.00;0.00;;;;;;;15.58;100.00;100553.38;5038113;28;20024;-75
2022/09/14 11:02:01;;;;;;;0.05;0.05;;;;;;;15.58;100.00;100556.09;5041814;28;20039;-75
2022/09/14 11:04:33;;;;;;;;;;;;;;;15.51;100.00;100557.72;5057307;28;20021;-75
2022/09/14 11:07:06;;;;;;;0.00;0.00;;;;;;;15.51;100.00;100548.78;5041942;28;19916;-76
2022/09/14 11:09:37;;;;;;;0.00;0.00;;;;;;;15.52;100.00;100551.31;5045048;28;20025;-74
2022/09/14 11:12:24;;;;;;;0.00;0.00;;;;;;;15.56;100.00;100560.81;5048251;28;20649;-74
2022/09/14 11:15:24;;;;;;;0.10;0.10;;;;;;;15.58;100.00;100556.09;5048998;28;20895;-75
2022/09/14 11:18:00;;;;;;;0.00;0.00;;;;;;;15.58;100.00;100560.66;5054948;28;20549;-75
2022/09/14 11:20:52;;;;;;;0.00;0.00;;;;;;;15.62;100.00;100550.34;5052325;28;20029;-75
2022/09/14 11:23:39;;;;;;;0.00;0.00;;;;;;;15.70;100.00;100551.25;5040151;28;20024;-76
2022/09/14 11:26:20;;;;;;;0.00;0.00;;;;;;;15.75;100.00;100558.91;5056040;28;20057;-76
2022/09/14 11:28:54;;;;;;;0.00;0.00;;;;;;;15.69;100.00;100560.38;5060275;28;20037;-76